createdAt,value
2022-09-02T00:02:26.485Z,82.84
2022-09-02T00:07:28.286Z,83.38
2022-09-02T00:12:30.045Z,83.15
2022-09-02T00:17:32.010Z,83.38
2022-09-02T00:22:33.744Z,83.74
2022-09-02T00:27:35.408Z,83.95
2022-09-02T00:32:37.322Z,84.01
2022-09-02T00:37:39.018Z,83.78
2022-09-02T00:42:41.488Z,83.43
2022-09-02T00:47:43.137Z,83.20
2022-09-02T00:52:50.510Z,82.47
2022-09-02T00:58:02.034Z,83.26
2022-09-02T01:03:06.995Z,82.63
2022-09-02T01:08:09.620Z,83.01
2022-09-02T01:13:15.466Z,82.66
2022-09-02T01:18:21.818Z,83.09
2022-09-02T01:23:23.794Z,83.22
2022-09-02T01:28:27.009Z,82.30
2022-09-02T01:33:29.161Z,82.07
2022-09-02T01:38:33.400Z,81.91
2022-09-02T01:43:35.131Z,81.89
2022-09-02T01:48:36.915Z,82.38
2022-09-02T01:53:38.663Z,81.89
2022-09-02T01:58:42.786Z,81.88
2022-09-02T02:03:45.400Z,82.11
2022-09-02T02:08:47.361Z,82.51
2022-09-02T02:13:49.776Z,82.50
2022-09-02T02:18:51.679Z,82.84
2022-09-02T02:23:55.121Z,82.93
2022-09-02T02:28:56.977Z,83.66
2022-09-02T02:33:59.823Z,83.70
2022-09-02T02:39:01.992Z,83.61
2022-09-02T02:44:04.697Z,83.49
2022-09-02T02:49:09.418Z,83.39
2022-09-02T02:54:14.302Z,83.83
2022-09-02T02:59:16.377Z,83.99
2022-09-02T03:04:18.464Z,84.04
2022-09-02T03:09:20.601Z,84.03
2022-09-02T03:14:22.558Z,84.31
2022-09-02T03:19:24.394Z,84.37
2022-09-02T03:24:27.966Z,84.08
2022-09-02T03:29:29.931Z,84.15
2022-09-02T03:34:33.213Z,83.95
2022-09-02T03:39:37.242Z,84.43
2022-09-02T03:44:40.271Z,84.58
2022-09-02T03:49:43.692Z,84.91
2022-09-02T03:54:47.209Z,84.52
2022-09-02T03:59:49.222Z,84.56
2022-09-02T04:04:51.026Z,84.38
2022-09-02T04:09:52.948Z,85.31
2022-09-02T04:14:54.959Z,85.65
2022-09-02T04:19:59.794Z,86.20
2022-09-02T04:25:01.852Z,86.01
2022-09-02T04:30:04.305Z,85.62
2022-09-02T04:35:09.707Z,85.83
2022-09-02T04:40:13.190Z,86.08
2022-09-02T04:45:15.983Z,86.43
2022-09-02T04:50:19.034Z,85.90
2022-09-02T04:55:33.586Z,86.85
2022-09-02T05:00:38.783Z,86.59
2022-09-02T05:05:43.349Z,86.54
2022-09-02T05:10:50.025Z,86.44
2022-09-02T05:15:52.790Z,86.29
2022-09-02T05:20:54.785Z,86.27
2022-09-02T05:25:56.734Z,86.59
2022-09-02T05:31:08.864Z,87.13
2022-09-02T05:36:17.585Z,87.17
2022-09-02T05:41:23.400Z,87.00
2022-09-02T05:46:29.295Z,87.84
2022-09-02T05:51:42.789Z,88.47
2022-09-02T05:56:46.481Z,89.16
2022-09-02T06:01:50.542Z,89.50
2022-09-02T06:06:53.007Z,89.78
2022-09-02T06:11:57.131Z,90.09
2022-09-02T06:17:05.354Z,90.08
2022-09-02T06:22:15.079Z,90.13
2022-09-02T06:27:18.430Z,89.34
2022-09-02T06:32:23.775Z,88.37
2022-09-02T06:37:30.890Z,87.43
2022-09-02T06:42:33.791Z,85.62
2022-09-02T06:47:43.419Z,84.02
2022-09-02T06:52:45.942Z,83.59
2022-09-02T06:57:48.952Z,82.80
2022-09-02T07:03:12.017Z,81.02
2022-09-02T07:08:13.964Z,79.23
2022-09-02T07:13:17.371Z,78.47
2022-09-02T07:18:19.298Z,77.58
2022-09-02T07:23:21.488Z,74.88
2022-09-02T07:28:23.569Z,72.76
2022-09-02T07:33:25.877Z,73.13
2022-09-02T07:38:27.895Z,71.45
2022-09-02T07:43:31.547Z,72.18
2022-09-02T07:48:34.625Z,70.27
2022-09-02T07:53:36.805Z,70.51
2022-09-02T07:58:40.926Z,69.52
2022-09-02T08:03:44.916Z,66.27
2022-09-02T08:08:47.345Z,64.67
2022-09-02T08:13:49.450Z,64.82
2022-09-02T08:18:51.777Z,64.21
2022-09-02T08:23:53.606Z,63.48
2022-09-02T08:28:56.130Z,63.26
2022-09-02T08:33:59.545Z,63.65
2022-09-02T08:39:03.602Z,62.35
2022-09-02T08:44:07.036Z,60.27
2022-09-02T08:49:12.861Z,59.84
2022-09-02T08:54:48.576Z,58.81
2022-09-02T08:59:52.313Z,58.19
2022-09-02T09:05:12.641Z,57.76
2022-09-02T09:10:25.967Z,56.52
2022-09-02T09:16:09.480Z,56.78
2022-09-02T09:21:11.786Z,56.36
2022-09-02T09:26:17.588Z,54.97
2022-09-02T09:31:21.994Z,54.83
2022-09-02T09:36:39.570Z,53.13
2022-09-02T09:41:41.659Z,54.03
2022-09-02T09:46:43.382Z,53.31
2022-09-02T09:51:54.923Z,53.11
2022-09-02T09:57:15.107Z,52.57
2022-09-02T10:02:24.090Z,52.93
2022-09-02T10:07:40.028Z,53.11
2022-09-02T10:12:41.838Z,49.81
2022-09-02T10:17:55.721Z,51.62
2022-09-02T10:23:18.378Z,52.42
2022-09-02T10:28:26.411Z,50.86
2022-09-02T10:33:57.362Z,50.79
2022-09-02T10:39:45.760Z,51.18
2022-09-02T10:45:19.640Z,49.05
2022-09-02T10:50:54.654Z,50.21
2022-09-02T10:56:04.826Z,49.96
2022-09-02T11:01:17.239Z,49.66
2022-09-02T11:06:31.703Z,49.37
2022-09-02T11:11:45.194Z,49.08
2022-09-02T11:17:03.398Z,47.48
2022-09-02T11:22:08.117Z,48.64
2022-09-02T11:27:38.976Z,48.91
2022-09-02T11:32:59.661Z,48.12
2022-09-02T11:38:05.372Z,47.17
2022-09-02T11:43:37.358Z,47.26
2022-09-02T11:48:57.850Z,47.98
2022-09-02T11:54:03.133Z,48.52
2022-09-02T11:59:07.869Z,46.77
2022-09-02T12:09:46.863Z,45.99
2022-09-02T12:14:50.337Z,47.42
2022-09-02T12:19:52.022Z,48.85
2022-09-02T12:24:59.286Z,48.36
2022-09-02T12:30:01.890Z,46.67
2022-09-02T12:35:28.863Z,48.32
2022-09-02T12:40:35.820Z,45.90
2022-09-02T12:45:43.770Z,46.50
2022-09-02T12:50:58.956Z,47.39
2022-09-02T12:56:18.538Z,44.73
2022-09-02T13:01:53.317Z,46.49
2022-09-02T13:07:46.703Z,46.02
2022-09-02T13:13:16.237Z,44.92
2022-09-02T13:18:39.790Z,46.35
2022-09-02T13:24:05.996Z,47.22
2022-09-02T13:29:30.422Z,45.27
2022-09-02T13:34:32.350Z,46.22
2022-09-02T13:39:34.103Z,45.85
2022-09-02T13:44:35.872Z,47.20
2022-09-02T13:49:40.906Z,46.27
2022-09-02T13:54:49.421Z,43.97
2022-09-02T13:59:56.052Z,45.85
2022-09-02T14:05:13.800Z,43.44
2022-09-02T14:10:19.697Z,45.44
2022-09-02T14:15:27.636Z,43.87
2022-09-02T14:20:30.575Z,44.21
2022-09-02T14:25:38.115Z,45.64
2022-09-02T14:30:41.481Z,43.62
2022-09-02T14:36:05.238Z,44.47
2022-09-02T14:41:20.329Z,42.51
2022-09-02T14:46:45.453Z,44.30
2022-09-02T14:51:50.940Z,42.71
2022-09-02T14:56:53.873Z,44.56
2022-09-02T15:01:58.268Z,44.78
2022-09-02T15:07:00.515Z,44.35
2022-09-02T15:12:03.172Z,44.59
2022-09-02T15:17:08.788Z,43.74
2022-09-02T15:22:11.174Z,43.76
2022-09-02T15:27:13.667Z,43.60
2022-09-02T15:32:15.688Z,43.64
2022-09-02T15:37:17.365Z,43.50
2022-09-02T15:42:19.414Z,44.32
2022-09-02T15:47:21.094Z,42.98
2022-09-02T15:52:23.716Z,44.30
2022-09-02T15:57:25.617Z,43.55
2022-09-02T16:02:27.480Z,44.01
2022-09-02T16:07:29.261Z,45.15
2022-09-02T16:12:32.158Z,44.56
2022-09-02T16:17:33.783Z,44.04
2022-09-02T16:22:35.461Z,43.70
2022-09-02T16:27:52.397Z,44.97
2022-09-02T16:32:54.117Z,45.82
2022-09-02T16:37:57.384Z,45.30
2022-09-02T16:43:24.693Z,45.83
2022-09-02T16:48:26.476Z,46.13
2022-09-02T16:53:28.276Z,46.01
2022-09-02T16:58:31.031Z,46.48
2022-09-02T17:03:33.400Z,47.42
2022-09-02T17:08:35.539Z,48.44
2022-09-02T17:13:37.281Z,49.58
2022-09-02T17:18:39.009Z,51.06
2022-09-02T17:23:40.961Z,52.44
2022-09-02T17:28:50.242Z,54.17
2022-09-02T17:33:54.109Z,55.49
2022-09-02T17:39:02.446Z,57.10
2022-09-02T17:44:04.199Z,58.33
2022-09-02T17:49:16.966Z,59.15
2022-09-02T17:54:19.896Z,59.15
2022-09-02T17:59:30.476Z,58.97
2022-09-02T18:04:34.285Z,59.48
2022-09-02T18:09:37.416Z,59.50
2022-09-02T18:14:47.634Z,59.48
2022-09-02T18:19:58.857Z,59.86
2022-09-02T18:25:42.944Z,60.86
2022-09-02T18:31:00.746Z,62.32
2022-09-02T18:36:40.318Z,63.90
2022-09-02T18:42:11.169Z,64.40
2022-09-02T18:47:17.702Z,64.78
2022-09-02T18:52:26.229Z,65.61
2022-09-02T18:57:33.907Z,66.17
2022-09-02T19:02:50.221Z,66.63
2022-09-02T19:08:20.992Z,67.08
2022-09-02T19:13:22.766Z,67.10
2022-09-02T19:18:25.770Z,67.76
2022-09-02T19:23:29.494Z,68.35
2022-09-02T19:28:31.543Z,68.41
2022-09-02T19:33:36.388Z,68.78
2022-09-02T19:38:39.198Z,69.03
2022-09-02T19:43:41.166Z,69.76
2022-09-02T19:48:42.852Z,70.33
2022-09-02T19:53:45.661Z,70.14
2022-09-02T19:58:47.457Z,70.47
2022-09-02T20:03:49.098Z,70.44
2022-09-02T20:08:51.686Z,70.56
2022-09-02T20:13:53.421Z,71.47
2022-09-02T20:18:56.695Z,71.15
2022-09-02T20:24:14.533Z,71.45
2022-09-02T20:30:00.995Z,72.59
2022-09-02T20:35:24.620Z,72.70
2022-09-02T20:40:36.233Z,73.34
2022-09-02T20:45:38.067Z,72.99
2022-09-02T20:51:10.704Z,73.09
2022-09-02T20:56:30.201Z,72.89
2022-09-02T21:01:36.649Z,73.24
2022-09-02T21:06:49.782Z,72.85
2022-09-02T21:12:02.944Z,72.76
2022-09-02T21:17:10.606Z,73.04
2022-09-02T21:22:21.607Z,72.57
2022-09-02T21:27:33.434Z,71.75
2022-09-02T21:32:49.151Z,72.02
2022-09-02T21:37:58.024Z,71.52
2022-09-02T21:43:37.654Z,72.40
2022-09-02T21:48:55.567Z,72.34
2022-09-02T21:54:06.331Z,73.11
2022-09-02T21:59:53.536Z,73.49
2022-09-02T22:05:05.237Z,72.70
2022-09-02T22:10:13.113Z,72.57
2022-09-02T22:15:22.051Z,72.42
2022-09-02T22:20:31.340Z,72.75
2022-09-02T22:25:36.000Z,72.72
2022-09-02T22:30:43.802Z,73.04
2022-09-02T22:36:00.602Z,72.57
2022-09-02T22:41:38.524Z,71.72
2022-09-02T22:47:19.650Z,72.19
2022-09-02T22:52:45.934Z,72.78
2022-09-02T22:58:21.108Z,72.56
2022-09-02T23:03:49.218Z,72.94
2022-09-02T23:08:51.212Z,72.55
2022-09-02T23:14:09.008Z,72.55
2022-09-02T23:19:38.634Z,72.91
2022-09-02T23:24:44.971Z,73.10
2022-09-02T23:29:50.218Z,72.54
2022-09-02T23:35:13.841Z,72.74
2022-09-02T23:41:17.910Z,73.75
2022-09-02T23:46:51.696Z,73.93
2022-09-02T23:52:16.585Z,74.36
2022-09-02T23:57:42.573Z,74.49
